Time;durP1;ratioP1;P1;durP2;ratioP2;P2;SDS_P1;SDS_P2;PMS_P1;PMS_P2;Temp;Humidity;BMP_temperature;BMP_pressure;BME280_temperature;BME280_humidity;BME280_pressure;Samples;Min_cycle;Max_cycle;Signal;HPM_P1;HPM_P2
2023/09/11 00:01:06;;;;;;;12.80;8.60;;;;;;;13.98;61.87;101128.59;105265;1254;61045;-64
2023/09/11 00:03:33;;;;;;;12.60;7.80;;;;;;;13.95;61.79;101128.50;105280;1253;60310;-65
2023/09/11 00:06:04;;;;;;;12.20;7.50;;;;;;;13.92;62.03;101126.25;105390;1254;64870;-66
2023/09/11 00:08:33;;;;;;;13.80;7.80;;;;;;;13.90;61.93;101125.17;105591;1251;61479;-65
2023/09/11 00:11:00;;;;;;;16.30;9.00;;;;;;;13.85;62.07;101127.17;105699;1256;62431;-64
2023/09/11 00:13:28;;;;;;;15.50;8.80;;;;;;;13.80;62.21;101125.70;105482;1254;61608;-65
2023/09/11 00:15:55;;;;;;;16.90;9.10;;;;;;;13.79;62.27;101123.95;106229;1251;60613;-64
2023/09/11 00:18:26;;;;;;;13.90;8.50;;;;;;;13.81;62.43;101120.45;105246;1257;64908;-65
2023/09/11 00:20:53;;;;;;;13.70;8.30;;;;;;;13.82;62.59;101120.88;105207;1256;61412;-64
2023/09/11 00:23:21;;;;;;;11.70;7.50;;;;;;;13.83;62.72;101121.71;105198;1254;63755;-65
2023/09/11 00:25:49;;;;;;;11.30;7.40;;;;;;;13.84;62.70;101119.03;105230;1254;60616;-66
2023/09/11 00:28:16;;;;;;;13.70;7.80;;;;;;;13.85;62.58;101119.27;105427;1256;59379;-64
2023/09/11 00:30:44;;;;;;;12.30;7.70;;;;;;;13.83;62.44;101118.02;105160;1257;64964;-64
2023/09/11 00:33:12;;;;;;;14.40;8.20;;;;;;;13.79;62.45;101117.98;105177;1257;61568;-64
2023/09/11 00:35:43;;;;;;;11.30;7.80;;;;;;;13.78;62.37;101117.02;105127;1256;63705;-64
2023/09/11 00:38:11;;;;;;;13.70;7.90;;;;;;;13.79;62.54;101116.62;104901;1254;60507;-62
2023/09/11 00:40:38;;;;;;;14.20;8.30;;;;;;;13.79;62.52;101114.14;105238;1251;60546;-63
2023/09/11 00:43:06;;;;;;;13.00;7.70;;;;;;;13.77;62.61;101112.68;105404;1256;64864;-63
2023/09/11 00:45:34;;;;;;;13.10;8.50;;;;;;;13.72;62.73;101106.02;106189;1253;61355;-63
2023/09/11 00:48:03;;;;;;;12.90;8.70;;;;;;;13.70;62.77;101104.80;106231;1254;63746;-62
2023/09/11 00:50:31;;;;;;;12.90;8.20;;;;;;;13.65;62.74;101099.93;105612;1257;60559;-63
2023/09/11 00:52:59;;;;;;;12.60;8.20;;;;;;;13.61;62.87;101098.45;105154;1254;60472;-64
2023/09/11 00:55:26;;;;;;;13.20;7.30;;;;;;;13.59;62.99;101099.38;105251;1252;65525;-64
2023/09/11 00:57:55;;;;;;;14.10;7.30;;;;;;;13.59;62.99;101096.00;105117;1259;60348;-65
2023/09/11 01:00:22;;;;;;;12.50;6.80;;;;;;;13.62;62.91;101097.15;105793;1256;62513;-66
2023/09/11 01:02:50;;;;;;;12.60;7.30;;;;;;;13.67;62.80;101097.78;105174;1254;60451;-65
2023/09/11 01:05:18;;;;;;;12.20;7.40;;;;;;;13.69;62.66;101097.15;105317;1254;60601;-65
2023/09/11 01:07:45;;;;;;;11.60;8.50;;;;;;;13.65;62.62;101092.66;105187;1258;66142;-65
2023/09/11 01:10:13;;;;;;;14.00;7.60;;;;;;;13.59;62.46;101094.04;105227;1257;68354;-64
2023/09/11 01:12:41;;;;;;;12.80;7.40;;;;;;;13.52;62.44;101094.08;105287;1254;64259;-64
2023/09/11 01:15:09;;;;;;;13.50;7.80;;;;;;;13.48;62.55;101091.61;105231;1254;60574;-66
2023/09/11 01:17:57;;;;;;;11.80;7.40;;;;;;;13.45;62.85;101087.77;106463;1256;60434;-63
2023/09/11 01:20:47;;;;;;;11.30;7.00;;;;;;;13.47;62.78;101088.46;106051;1254;65830;-64
2023/09/11 01:24:06;;;;;;;10.30;7.10;;;;;;;13.51;62.76;101085.14;106279;1256;61373;-63
2023/09/11 01:26:58;;;;;;;14.20;9.10;;;;;;;13.54;62.60;101083.65;106018;1255;63842;-63
2023/09/11 01:29:26;;;;;;;10.50;6.90;;;;;;;13.54;62.72;101083.89;106265;1253;60841;-61
2023/09/11 01:31:54;;;;;;;11.10;7.40;;;;;;;13.53;62.88;101082.52;105208;1254;60629;-64
2023/09/11 01:34:22;;;;;;;10.70;6.80;;;;;;;13.53;63.03;101081.65;105413;1252;63684;-62
2023/09/11 01:36:49;;;;;;;11.10;6.70;;;;;;;13.50;63.20;101076.41;105640;1254;60410;-61
2023/09/11 01:39:17;;;;;;;10.30;6.90;;;;;;;13.48;63.41;101072.73;105358;1253;63712;-63
2023/09/11 01:41:47;;;;;;;12.50;7.90;;;;;;;13.49;63.34;101072.29;105664;1253;293082;-61
2023/09/11 01:46:42;;;;;;;11.90;7.80;;;;;;;13.37;63.60;101073.75;102623;1286;601092;-62
2023/09/11 01:49:10;;;;;;;10.10;6.70;;;;;;;13.49;63.13;101070.90;104528;1267;59520;-63
2023/09/11 01:51:37;;;;;;;12.20;8.30;;;;;;;13.46;63.01;101074.88;104418;1267;59264;-62
2023/09/11 01:54:05;;;;;;;10.80;7.20;;;;;;;13.40;62.91;101073.41;104305;1267;70166;-59
2023/09/11 01:56:33;;;;;;;10.70;6.60;;;;;;;13.34;62.87;101072.61;104630;1267;61381;-62
2023/09/11 01:59:02;;;;;;;11.40;7.50;;;;;;;13.30;62.82;101070.80;104767;1272;62415;-62
2023/09/11 02:01:29;;;;;;;12.80;7.50;;;;;;;13.29;62.69;101070.38;105553;1266;228791;-63
2023/09/11 02:03:57;;;;;;;12.20;7.60;;;;;;;13.25;62.68;101070.65;105364;1264;59291;-61
2023/09/11 02:06:24;;;;;;;11.10;7.20;;;;;;;13.19;62.70;101072.55;104589;1264;62149;-61
2023/09/11 02:08:53;;;;;;;11.70;7.20;;;;;;;13.13;62.81;101069.30;106046;1267;61490;-60
2023/09/11 02:11:22;;;;;;;11.90;7.70;;;;;;;13.07;62.96;101067.20;105225;1264;63726;-61
2023/09/11 02:13:50;;;;;;;11.80;6.60;;;;;;;13.01;63.07;101064.98;105182;1266;59832;-61
2023/09/11 02:16:18;;;;;;;13.40;7.30;;;;;;;13.03;63.28;101059.88;105360;1264;59718;-59
2023/09/11 02:18:46;;;;;;;10.80;6.60;;;;;;;13.08;63.28;101060.02;104740;1264;64069;-59
2023/09/11 02:21:13;;;;;;;12.40;7.30;;;;;;;13.10;63.27;101059.36;104465;1264;61296;-60
2023/09/11 02:23:41;;;;;;;11.60;7.40;;;;;;;13.11;63.41;101061.75;104376;1269;63730;-61
2023/09/11 02:26:09;;;;;;;10.70;6.90;;;;;;;13.12;63.48;101055.16;104578;1264;59762;-62
2023/09/11 02:28:37;;;;;;;15.00;7.10;;;;;;;13.09;63.38;101051.54;104662;1264;59780;-60
2023/09/11 02:31:05;;;;;;;10.70;7.60;;;;;;;13.03;63.32;101051.59;104634;1264;66732;-65
2023/09/11 02:33:32;;;;;;;13.50;7.20;;;;;;;12.99;63.36;101051.75;104661;1264;61451;-60
2023/09/11 02:36:00;;;;;;;10.70;7.20;;;;;;;13.00;63.47;101054.32;105070;1251;62527;-61
2023/09/11 02:38:28;;;;;;;10.30;6.90;;;;;;;13.04;63.32;101056.16;105984;1251;59233;-62
2023/09/11 02:40:55;;;;;;;10.60;7.40;;;;;;;13.03;63.30;101056.90;105282;1251;60408;-59
2023/09/11 02:43:36;;;;;;;12.00;7.30;;;;;;;13.00;63.36;101054.54;105594;1251;64130;-64
2023/09/11 02:46:04;;;;;;;10.20;6.80;;;;;;;12.95;63.32;101059.10;105364;1251;61399;-60
2023/09/11 02:48:31;;;;;;;14.50;7.60;;;;;;;12.93;63.26;101059.67;105284;1254;63775;-63
2023/09/11 02:51:00;;;;;;;11.50;6.90;;;;;;;12.89;63.31;101062.22;106619;1252;59634;-62
2023/09/11 02:53:27;;;;;;;11.50;6.60;;;;;;;12.89;63.25;101065.92;105422;1251;59614;-59
2023/09/11 02:55:55;;;;;;;9.50;6.20;;;;;;;12.92;63.25;101066.07;105229;1258;64655;-62
2023/09/11 02:58:23;;;;;;;10.70;6.30;;;;;;;12.94;63.41;101067.30;105352;1251;61409;-64
2023/09/11 03:00:51;;;;;;;10.80;6.80;;;;;;;12.94;63.57;101067.29;106701;1259;63796;-62
2023/09/11 03:03:18;;;;;;;13.00;7.20;;;;;;;12.93;63.76;101065.46;105291;1254;60402;-62
2023/09/11 03:05:57;;;;;;;9.70;6.50;;;;;;;12.93;63.92;101065.79;105359;1251;59539;-63
2023/09/11 03:08:24;;;;;;;12.00;6.90;;;;;;;12.94;64.05;101064.51;105440;1254;66784;-63
2023/09/11 03:10:53;;;;;;;11.00;6.50;;;;;;;12.93;64.11;101066.84;105888;1253;60320;-62
2023/09/11 03:13:20;;;;;;;11.40;6.60;;;;;;;12.96;64.03;101067.33;105869;1259;64258;-60
2023/09/11 03:15:48;;;;;;;11.30;6.00;;;;;;;12.99;64.03;101067.23;105886;1254;59739;-60
2023/09/11 03:18:16;;;;;;;11.80;6.70;;;;;;;13.03;63.96;101066.41;105543;1251;59640;-62
2023/09/11 03:20:44;;;;;;;10.40;6.60;;;;;;;13.06;64.16;101067.63;105162;1258;62812;-63
2023/09/11 03:23:11;;;;;;;10.40;6.40;;;;;;;13.07;64.11;101068.06;105299;1251;61480;-62
2023/09/11 03:25:45;;;;;;;10.30;5.90;;;;;;;13.04;64.02;101062.62;105340;1254;62487;-56
2023/09/11 03:28:14;;;;;;;9.20;6.00;;;;;;;13.00;64.04;101063.34;105444;1254;59917;-62
2023/09/11 03:30:41;;;;;;;13.00;6.30;;;;;;;12.97;64.02;101061.81;105331;1256;59551;-59
2023/09/11 03:33:09;;;;;;;9.40;6.10;;;;;;;12.98;64.03;101062.41;105334;1253;65040;-60
2023/09/11 03:35:36;;;;;;;7.50;5.10;;;;;;;13.02;63.92;101065.42;105315;1257;60299;-62
2023/09/11 03:38:04;;;;;;;8.70;5.70;;;;;;;13.05;63.80;101059.05;105347;1255;62486;-62
2023/09/11 03:40:32;;;;;;;10.20;6.60;;;;;;;13.04;63.73;101055.76;105569;1260;59790;-60
2023/09/11 03:43:00;;;;;;;9.50;6.50;;;;;;;12.99;63.75;101057.02;105204;1254;59587;-60
2023/09/11 03:45:28;;;;;;;9.90;6.90;;;;;;;12.94;63.62;101057.60;105217;1257;64124;-60
2023/09/11 03:47:55;;;;;;;11.90;6.80;;;;;;;12.90;63.46;101060.09;105364;1251;61429;-61
2023/09/11 03:50:23;;;;;;;10.10;7.00;;;;;;;12.84;63.42;101057.35;105257;1256;63709;-62
2023/09/11 03:52:51;;;;;;;9.60;6.70;;;;;;;12.78;63.15;101058.70;105278;1259;59740;-62
2023/09/11 03:55:18;;;;;;;12.10;6.70;;;;;;;12.74;62.91;101059.02;105200;1257;60402;-60
2023/09/11 03:57:46;;;;;;;10.70;6.80;;;;;;;12.72;62.79;101055.98;105191;1251;62846;-60
2023/09/11 04:00:14;;;;;;;7.20;3.00;;;;;;;12.69;62.62;101058.17;105165;1257;60350;-61
2023/09/11 04:02:41;;;;;;;9.50;6.60;;;;;;;12.65;62.73;101062.02;105216;1251;63916;-60
2023/09/11 04:05:09;;;;;;;11.10;6.80;;;;;;;12.63;62.86;101059.02;105547;1252;59752;-60
2023/09/11 04:07:37;;;;;;;11.20;7.50;;;;;;;12.61;62.88;101060.55;105447;1255;59643;-58
2023/09/11 04:10:08;;;;;;;11.70;6.80;;;;;;;12.59;63.00;101059.80;105316;1256;64179;-59
2023/09/11 04:12:36;;;;;;;12.10;6.80;;;;;;;12.61;63.07;101057.89;105800;1257;60773;-60
2023/09/11 04:15:04;;;;;;;15.30;6.80;;;;;;;12.68;63.09;101058.30;105745;1254;63750;-55
2023/09/11 04:17:32;;;;;;;11.40;6.80;;;;;;;12.73;63.21;101056.49;105733;1256;59774;-54
2023/09/11 04:20:00;;;;;;;10.20;7.00;;;;;;;12.78;63.44;101059.61;105247;1251;59741;-52
2023/09/11 04:22:28;;;;;;;9.70;6.50;;;;;;;12.81;63.46;101058.46;105764;1252;65922;-60
2023/09/11 04:24:56;;;;;;;10.90;6.90;;;;;;;12.83;63.47;101060.74;106725;1251;61351;-59
2023/09/11 04:27:23;;;;;;;11.10;7.20;;;;;;;12.86;63.56;101062.83;105417;1254;63679;-60
2023/09/11 04:29:51;;;;;;;11.40;6.60;;;;;;;12.91;63.55;101065.48;105830;1254;59643;-59
2023/09/11 04:32:20;;;;;;;10.50;6.80;;;;;;;13.00;63.59;101065.08;105313;1257;59555;-60
2023/09/11 04:34:49;;;;;;;11.60;6.70;;;;;;;13.13;63.55;101068.45;105272;1251;64618;-53
2023/09/11 04:37:17;;;;;;;11.60;7.10;;;;;;;13.27;63.55;101063.50;105289;1251;60078;-61
2023/09/11 04:39:45;;;;;;;10.60;7.00;;;;;;;13.39;63.50;101060.40;105550;1257;62691;-59
2023/09/11 04:42:12;;;;;;;10.00;7.10;;;;;;;13.50;63.54;101058.23;105310;1254;59726;-58
2023/09/11 04:44:40;;;;;;;11.60;7.80;;;;;;;13.61;63.06;101057.60;105160;1251;59797;-58
2023/09/11 04:47:08;;;;;;;10.40;6.50;;;;;;;13.68;62.76;101058.06;105103;1252;62889;-56
2023/09/11 04:49:36;;;;;;;13.20;7.30;;;;;;;13.73;62.37;101050.37;105543;1251;61781;-60
2023/09/11 04:52:04;;;;;;;12.10;7.10;;;;;;;13.79;62.26;101048.52;105286;1257;64716;-59
2023/09/11 04:54:32;;;;;;;10.50;6.70;;;;;;;13.89;62.43;101043.63;108488;1251;59646;-59
2023/09/11 04:57:00;;;;;;;8.80;5.90;;;;;;;14.02;62.34;101041.10;105254;1257;61319;-58
2023/09/11 04:59:28;;;;;;;12.30;6.80;;;;;;;14.13;62.34;101040.00;105128;1258;63160;-60
2023/09/11 05:01:56;;;;;;;10.80;6.50;;;;;;;14.23;62.35;101039.84;105125;1254;60594;-58
2023/09/11 05:04:23;;;;;;;9.60;6.40;;;;;;;14.33;62.25;101035.71;107752;1256;63001;-59
2023/09/11 05:06:51;;;;;;;10.90;7.30;;;;;;;14.40;62.03;101033.35;105777;1254;59639;-59
2023/09/11 05:09:19;;;;;;;11.70;6.70;;;;;;;14.46;61.80;101036.48;105216;1257;59656;-59
2023/09/11 05:11:47;;;;;;;15.10;6.90;;;;;;;14.52;61.73;101032.83;105080;1251;64205;-58
2023/09/11 05:14:14;;;;;;;10.50;6.10;;;;;;;14.58;61.65;101030.55;105117;1251;61570;-56
2023/09/11 05:16:42;;;;;;;10.60;7.10;;;;;;;14.66;61.58;101028.06;104911;1254;62489;-58
2023/09/11 05:19:09;;;;;;;10.50;7.00;;;;;;;14.76;61.54;101027.73;104985;1256;59640;-57
2023/09/11 05:21:37;;;;;;;13.00;7.10;;;;;;;14.85;61.26;101031.92;105066;1257;59653;-57
2023/09/11 05:24:04;;;;;;;12.10;7.00;;;;;;;14.90;61.04;101033.42;105017;1260;63050;-53
2023/09/11 05:26:32;;;;;;;10.80;6.50;;;;;;;14.94;60.77;101035.93;107416;1256;61367;-56
2023/09/11 05:29:00;;;;;;;11.20;7.40;;;;;;;14.98;60.26;101028.81;107402;1254;62520;-58
2023/09/11 05:31:27;;;;;;;11.10;7.40;;;;;;;15.05;59.92;101025.55;105170;1257;59630;-55
2023/09/11 05:33:55;;;;;;;10.50;7.00;;;;;;;15.13;59.83;101023.45;105291;1254;59531;-59
2023/09/11 05:36:23;;;;;;;12.00;7.10;;;;;;;15.20;59.11;101023.57;105230;1256;64147;-55
2023/09/11 05:38:50;;;;;;;12.10;7.20;;;;;;;15.25;58.33;101024.02;105388;1251;61871;-58
2023/09/11 05:41:20;;;;;;;10.20;7.20;;;;;;;15.29;57.96;101025.07;105271;1257;63697;-58
2023/09/11 05:43:47;;;;;;;13.00;8.10;;;;;;;15.33;57.72;101025.88;105966;1257;59757;-57
2023/09/11 05:46:15;;;;;;;12.20;7.30;;;;;;;15.37;57.72;101027.16;105239;1254;59563;-55
2023/09/11 05:48:43;;;;;;;11.90;7.60;;;;;;;15.46;57.46;101034.16;105323;1257;62821;-62
2023/09/11 05:51:11;;;;;;;11.30;7.00;;;;;;;15.57;57.31;101031.17;105190;1257;60273;-63
2023/09/11 05:53:38;;;;;;;11.20;7.30;;;;;;;15.68;56.94;101031.75;109221;1251;62683;-64
2023/09/11 05:56:06;;;;;;;12.30;8.00;;;;;;;15.80;56.70;101034.44;109333;1251;60887;-60
2023/09/11 05:58:33;;;;;;;9.80;7.00;;;;;;;15.88;55.93;101031.74;109370;1251;58255;-63
2023/09/11 06:01:00;;;;;;;11.80;7.40;;;;;;;15.96;55.10;101029.55;109349;1256;64923;-61
2023/09/11 06:03:28;;;;;;;12.00;6.90;;;;;;;16.04;54.50;101028.83;105699;1256;60565;-60
2023/09/11 06:05:56;;;;;;;11.00;7.60;;;;;;;16.12;54.62;101029.70;106006;1256;63756;-65
2023/09/11 06:08:24;;;;;;;11.70;7.10;;;;;;;16.21;54.67;101027.29;105913;1257;60556;-61
2023/09/11 06:10:52;;;;;;;11.00;6.60;;;;;;;16.29;54.21;101026.88;105952;1254;60642;-60
2023/09/11 06:13:19;;;;;;;10.80;6.50;;;;;;;16.34;53.55;101030.30;109236;1253;64921;-63
2023/09/11 06:15:47;;;;;;;9.20;6.00;;;;;;;16.39;53.26;101031.09;105448;1252;61380;-62
2023/09/11 06:18:14;;;;;;;11.20;6.90;;;;;;;16.45;53.16;101031.98;105430;1254;63714;-61
2023/09/11 06:20:42;;;;;;;11.00;6.20;;;;;;;16.51;53.04;101029.80;105385;1257;60442;-60
2023/09/11 06:23:12;;;;;;;12.40;7.30;;;;;;;16.58;53.23;101031.75;105466;1257;60448;-63
2023/09/11 06:25:40;;;;;;;11.70;6.30;;;;;;;16.67;53.01;101032.32;105282;1252;63721;-56
2023/09/11 06:28:08;;;;;;;10.30;6.30;;;;;;;16.77;52.88;101030.27;105416;1256;60345;-67
2023/09/11 06:30:35;;;;;;;9.50;6.10;;;;;;;16.88;52.77;101032.84;105573;1257;62529;-59
2023/09/11 06:33:03;;;;;;;11.50;6.20;;;;;;;16.97;52.25;101030.38;105186;1257;60551;-62
2023/09/11 06:35:30;;;;;;;11.10;6.40;;;;;;;17.06;52.53;101033.45;105295;1257;60357;-63
2023/09/11 06:37:58;;;;;;;11.20;6.20;;;;;;;17.16;53.08;101036.34;105371;1254;63695;-62
2023/09/11 06:40:25;;;;;;;8.90;5.90;;;;;;;17.30;53.26;101034.45;105470;1254;61407;-49
2023/09/11 06:42:53;;;;;;;9.40;5.80;;;;;;;17.47;53.11;101039.85;105372;1257;65141;-56
2023/09/11 06:45:20;;;;;;;10.30;6.30;;;;;;;17.63;52.95;101042.89;105176;1252;60536;-54
2023/09/11 06:47:48;;;;;;;10.00;5.50;;;;;;;17.76;52.31;101038.88;105893;1257;60469;-54
2023/09/11 06:50:16;;;;;;;10.10;6.40;;;;;;;17.89;51.63;101036.04;105387;1257;64916;-53
2023/09/11 06:52:43;;;;;;;10.50;6.30;;;;;;;18.00;52.05;101035.84;105245;1257;61493;-54
2023/09/11 06:55:11;;;;;;;9.20;5.90;;;;;;;18.09;52.32;101037.77;105261;1257;62505;-52
2023/09/11 06:57:55;;;;;;;9.40;5.60;;;;;;;18.15;52.27;101040.70;105343;1257;60581;-50
2023/09/11 07:00:23;;;;;;;12.00;6.00;;;;;;;18.21;51.93;101033.73;107569;1252;60459;-53
2023/09/11 07:02:50;;;;;;;8.70;5.20;;;;;;;18.28;51.61;101028.23;105213;1257;63610;-54
2023/09/11 07:05:20;;;;;;;9.80;5.90;;;;;;;18.36;51.38;101024.57;105272;1257;64703;-53
2023/09/11 07:07:47;;;;;;;10.40;5.50;;;;;;;18.43;51.04;101020.88;107611;1255;62861;-52
2023/09/11 07:10:17;;;;;;;9.60;6.10;;;;;;;18.49;51.05;101018.75;105153;1260;60552;-54
2023/09/11 07:13:00;;;;;;;10.80;6.80;;;;;;;18.61;51.99;101019.15;109330;1256;59463;-55
2023/09/11 07:15:28;;;;;;;13.10;9.00;;;;;;;18.77;52.80;101020.10;109252;1252;63644;-55
2023/09/11 07:17:56;;;;;;;13.50;9.10;;;;;;;18.93;52.91;101018.14;109264;1256;61366;-57
2023/09/11 07:20:24;;;;;;;13.50;9.00;;;;;;;19.07;52.84;101021.09;109286;1251;63869;-63
2023/09/11 07:22:52;;;;;;;12.00;8.30;;;;;;;19.21;52.40;101019.48;109276;1253;58421;-55
2023/09/11 07:25:22;;;;;;;11.80;6.90;;;;;;;19.33;52.06;101016.54;109263;1251;58615;-55
2023/09/11 07:27:53;;;;;;;11.90;6.40;;;;;;;19.44;52.09;101015.39;109266;1256;64970;-56
2023/09/11 07:30:21;;;;;;;11.30;7.10;;;;;;;19.52;51.84;101016.29;109296;1251;61388;-55
2023/09/11 07:32:50;;;;;;;9.90;6.80;;;;;;;19.59;51.71;101015.73;109237;1251;65171;-57
2023/09/11 07:35:18;;;;;;;10.00;6.60;;;;;;;19.66;51.50;101011.45;109227;1252;58517;-57
2023/09/11 07:37:45;;;;;;;10.80;6.30;;;;;;;19.73;51.51;101010.85;106073;1254;60450;-55
2023/09/11 07:40:13;;;;;;;9.90;6.00;;;;;;;19.81;50.87;101010.17;105227;1257;64912;-62
2023/09/11 07:42:40;;;;;;;13.10;5.90;;;;;;;19.89;50.36;101010.33;105297;1257;61076;-58
2023/09/11 07:45:09;;;;;;;8.60;5.40;;;;;;;19.99;50.38;101010.55;105135;1255;64458;-54
2023/09/11 07:47:36;;;;;;;10.40;5.40;;;;;;;20.05;50.38;101006.80;109245;1255;58512;-56
2023/09/11 07:50:05;;;;;;;8.90;5.20;;;;;;;20.11;50.05;101001.95;105454;1251;60446;-61
2023/09/11 07:52:32;;;;;;;10.70;5.10;;;;;;;20.17;49.96;101004.20;105543;1257;64937;-57
2023/09/11 07:55:00;;;;;;;13.80;4.70;;;;;;;20.27;49.72;101003.84;105223;1256;60425;-62
2023/09/11 07:57:27;;;;;;;8.00;4.30;;;;;;;20.33;49.30;101001.91;105404;1256;63744;-58
2023/09/11 07:59:55;;;;;;;8.10;4.10;;;;;;;20.38;48.79;100998.91;105198;1252;60561;-58
2023/09/11 08:02:22;;;;;;;6.50;4.00;;;;;;;20.45;48.28;100998.27;105208;1257;60533;-56
2023/09/11 08:04:50;;;;;;;9.90;4.10;;;;;;;20.48;47.64;100997.30;105258;1251;63600;-57
2023/09/11 08:07:17;;;;;;;6.70;3.60;;;;;;;20.53;47.46;101000.98;105306;1256;60958;-56
2023/09/11 08:09:46;;;;;;;8.40;3.10;;;;;;;20.59;47.57;100997.39;105265;1257;62480;-55
2023/09/11 08:12:15;;;;;;;6.30;3.30;;;;;;;20.68;47.27;100996.61;105250;1256;60634;-55
2023/09/11 08:14:44;;;;;;;6.60;3.20;;;;;;;20.73;46.72;100996.39;108660;1253;60492;-58
2023/09/11 08:17:12;;;;;;;5.30;2.60;;;;;;;20.82;46.65;100995.93;107974;1254;64904;-56
2023/09/11 08:19:40;;;;;;;6.00;2.80;;;;;;;20.94;46.71;100996.55;105153;1257;61344;-55
2023/09/11 08:22:07;;;;;;;5.80;2.40;;;;;;;21.07;46.32;100994.70;105264;1257;63819;-55
2023/09/11 08:24:35;;;;;;;5.30;2.00;;;;;;;21.19;45.64;100991.04;105414;1252;60506;-56
2023/09/11 08:27:03;;;;;;;5.40;2.10;;;;;;;21.27;44.31;100987.77;105784;1251;60346;-56
2023/09/11 08:29:30;;;;;;;6.30;2.50;;;;;;;21.37;43.48;100987.70;105809;1254;64918;-53
2023/09/11 08:31:58;;;;;;;6.90;2.20;;;;;;;21.45;43.60;100990.45;105359;1257;61580;-55
2023/09/11 08:34:25;;;;;;;4.40;2.20;;;;;;;21.53;43.70;100986.31;105773;1254;63865;-58
2023/09/11 08:36:53;;;;;;;4.30;1.80;;;;;;;21.67;43.86;100984.36;105371;1254;60553;-56
2023/09/11 08:39:20;;;;;;;7.60;2.10;;;;;;;21.78;43.77;100982.97;105407;1257;60430;-54
2023/09/11 08:41:48;;;;;;;4.70;1.70;;;;;;;21.85;43.58;100981.64;105365;1252;64034;-56
2023/09/11 08:44:16;;;;;;;4.70;2.30;;;;;;;21.91;43.15;100981.52;105455;1257;61473;-55
2023/09/11 08:46:45;;;;;;;5.90;2.20;;;;;;;21.97;42.39;100979.02;105256;1261;75206;-59
2023/09/11 08:49:13;;;;;;;3.60;1.60;;;;;;;22.02;41.93;100975.38;106986;1254;60610;-61
2023/09/11 08:51:49;;;;;;;6.10;2.20;;;;;;;22.05;42.49;100968.55;105090;1260;60453;-58
2023/09/11 08:54:16;;;;;;;4.60;2.10;;;;;;;22.12;42.68;100960.52;105447;1258;73848;-60
2023/09/11 08:56:44;;;;;;;9.50;2.20;;;;;;;22.15;42.47;100956.11;109360;1256;61515;-56
2023/09/11 08:59:12;;;;;;;5.90;1.80;;;;;;;22.16;42.37;100957.67;106082;1255;63672;-54
2023/09/11 09:01:39;;;;;;;5.90;2.00;;;;;;;22.18;42.10;100955.48;105236;1259;62170;-54
2023/09/11 09:04:07;;;;;;;5.50;1.70;;;;;;;22.21;41.97;100947.93;105598;1255;60588;-54
2023/09/11 09:06:35;;;;;;;3.60;1.50;;;;;;;22.26;41.61;100946.44;105517;1260;64969;-56
2023/09/11 09:09:03;;;;;;;4.80;1.70;;;;;;;22.31;41.35;100943.90;105282;1260;61328;-56
2023/09/11 09:11:31;;;;;;;3.60;1.30;;;;;;;22.36;40.93;100941.12;109305;1256;64213;-55
2023/09/11 09:13:58;;;;;;;5.30;1.80;;;;;;;22.41;41.15;100934.45;109286;1253;58462;-55
2023/09/11 09:16:26;;;;;;;4.50;1.80;;;;;;;22.49;40.91;100930.05;109329;1254;60615;-54
2023/09/11 09:18:53;;;;;;;5.20;1.80;;;;;;;22.60;40.45;100924.08;109320;1254;63652;-55
2023/09/11 09:21:25;;;;;;;5.80;2.00;;;;;;;22.63;39.91;100923.86;109366;1251;61615;-55
2023/09/11 09:23:53;;;;;;;5.00;2.50;;;;;;;22.61;40.23;100920.66;109184;1255;64107;-56
2023/09/11 09:26:21;;;;;;;6.50;2.40;;;;;;;22.68;40.74;100917.60;109323;1254;58465;-55
2023/09/11 09:28:51;;;;;;;5.20;2.00;;;;;;;22.80;41.43;100913.89;106912;1257;60555;-53
2023/09/11 09:31:23;;;;;;;4.60;2.10;;;;;;;22.90;41.18;100914.73;106809;1257;65064;-56
2023/09/11 09:33:55;;;;;;;4.90;2.30;;;;;;;22.95;40.64;100910.95;105379;1261;60457;-54
2023/09/11 09:36:24;;;;;;;7.00;2.60;;;;;;;23.00;40.66;100914.34;105287;1251;62721;-55
2023/09/11 09:38:51;;;;;;;4.20;1.80;;;;;;;23.06;40.38;100912.11;105178;1251;60504;-54
2023/09/11 09:41:20;;;;;;;5.60;1.90;;;;;;;23.15;40.65;100911.40;105249;1256;60529;-55
2023/09/11 09:43:53;;;;;;;4.90;2.10;;;;;;;23.25;40.03;100907.11;109337;1251;64999;-54
2023/09/11 09:46:21;;;;;;;5.20;2.40;;;;;;;23.34;40.42;100900.05;109373;1251;60224;-56
2023/09/11 09:48:50;;;;;;;5.60;2.50;;;;;;;23.46;40.67;100897.16;107627;1254;64126;-57
2023/09/11 09:51:18;;;;;;;5.80;2.30;;;;;;;23.56;40.31;100897.44;106105;1257;60546;-57
2023/09/11 09:53:46;;;;;;;6.30;2.70;;;;;;;23.62;40.34;100897.84;105539;1257;60629;-56
2023/09/11 09:56:14;;;;;;;7.50;2.90;;;;;;;23.66;40.13;100895.98;106192;1254;64935;-56
2023/09/11 09:58:43;;;;;;;5.00;2.50;;;;;;;23.64;39.82;100890.23;105450;1256;61346;-56
2023/09/11 10:01:14;;;;;;;6.60;2.30;;;;;;;23.61;39.80;100890.11;105457;1260;65776;-57
2023/09/11 10:03:46;;;;;;;5.20;2.10;;;;;;;23.60;39.88;100889.13;105598;1251;60525;-54
2023/09/11 10:06:22;;;;;;;6.00;2.50;;;;;;;23.64;40.19;100885.02;105504;1256;60702;-56
2023/09/11 10:09:04;;;;;;;5.60;2.20;;;;;;;23.71;39.09;100883.02;105492;1256;66051;-55
2023/09/11 10:11:32;;;;;;;6.30;2.80;;;;;;;23.76;38.74;100882.40;105715;1251;72185;-57
2023/09/11 10:14:02;;;;;;;5.20;2.30;;;;;;;23.78;38.38;100876.38;106076;1255;64320;-55
2023/09/11 10:16:30;;;;;;;4.70;2.00;;;;;;;23.84;38.60;100872.92;105709;1256;60552;-55
2023/09/11 10:18:59;;;;;;;4.90;2.20;;;;;;;23.90;37.92;100872.34;105886;1256;60354;-54
2023/09/11 10:21:28;;;;;;;6.10;2.00;;;;;;;23.99;37.80;100871.46;106102;1257;74814;-57
2023/09/11 10:23:56;;;;;;;4.20;1.90;;;;;;;24.08;37.61;100869.58;105947;1253;60559;-54
2023/09/11 10:26:27;;;;;;;6.50;2.50;;;;;;;24.17;37.33;100869.73;105474;1255;63848;-63
2023/09/11 10:28:55;;;;;;;4.70;2.20;;;;;;;24.26;37.04;100867.04;106737;1254;60460;-60
2023/09/11 10:31:25;;;;;;;4.10;2.00;;;;;;;24.29;36.44;100866.14;106025;1251;62165;-63
2023/09/11 10:33:55;;;;;;;4.30;2.10;;;;;;;24.28;36.12;100866.00;106966;1251;74342;-64
2023/09/11 10:36:25;;;;;;;4.60;2.30;;;;;;;24.26;36.07;100861.04;106204;1251;61694;-63
2023/09/11 10:38:54;;;;;;;57.20;11.50;;;;;;;24.24;36.44;100858.27;105318;1256;62739;-60
2023/09/11 10:41:22;;;;;;;9.70;2.70;;;;;;;24.21;36.28;100855.14;105883;1256;60408;-62
2023/09/11 10:43:50;;;;;;;4.90;2.20;;;;;;;24.12;36.62;100855.33;105994;1254;60369;-62
2023/09/11 10:46:21;;;;;;;5.30;1.90;;;;;;;24.11;36.56;100857.34;105501;1256;64967;-62
2023/09/11 10:48:52;;;;;;;4.60;2.10;;;;;;;24.12;36.80;100856.98;105366;1256;61350;-63
2023/09/11 10:51:20;;;;;;;5.80;2.50;;;;;;;24.20;36.91;100855.63;106195;1253;63765;-63
2023/09/11 10:53:47;;;;;;;3.70;1.70;;;;;;;24.28;36.53;100852.23;105386;1257;60581;-62
2023/09/11 10:56:15;;;;;;;4.80;2.20;;;;;;;24.35;36.28;100850.92;105242;1254;60562;-62
2023/09/11 10:58:43;;;;;;;9.80;2.40;;;;;;;24.38;36.17;100849.49;105368;1251;63671;-57
2023/09/11 11:01:13;;;;;;;5.90;2.00;;;;;;;24.38;36.54;100845.11;105138;1256;60383;-60
2023/09/11 11:03:41;;;;;;;4.70;2.30;;;;;;;24.51;36.12;100842.32;105156;1251;64743;-62
2023/09/11 11:06:12;;;;;;;5.60;2.20;;;;;;;24.63;35.54;100835.26;105397;1257;60569;-59
2023/09/11 11:08:41;;;;;;;7.00;2.50;;;;;;;24.75;35.13;100834.57;105270;1258;60432;-57
2023/09/11 11:11:29;;;;;;;4.80;2.30;;;;;;;24.83;35.24;100839.70;106351;1254;76450;-59
2023/09/11 11:14:11;;;;;;;5.60;2.40;;;;;;;24.95;35.03;100830.97;105920;1255;61394;-58
2023/09/11 11:16:39;;;;;;;4.20;2.00;;;;;;;25.10;34.86;100825.05;105615;1254;63678;-57
2023/09/11 11:19:07;;;;;;;5.80;2.10;;;;;;;25.18;34.11;100823.54;107065;1256;60529;-59
2023/09/11 11:21:39;;;;;;;4.90;2.30;;;;;;;25.23;34.17;100818.73;105308;1251;60546;-59